Latest Weather Observations for Leonora Airport

IDW60801

Issued at 5:35 pm WST Monday 20 October 2014 (issued every 30 minutes, with the page automatically refreshed every 10 minutes)

About weather observations | Map of weather stations | Latest weather observations for WA | Other Formats
Station Details ID: 012241 Name: LEONORA AERO Lat: -28.88 Lon: 121.32 Height: 370.0 m
Data from the previous 72 hours. | See also: Recent months for locations in Western Australia
Date/Time
WST
Temp
°C
App
Temp
°C
Dew
Point
Rel
Hum
%
Delta-T
°C
Wind Press
QNH
hPa
Press
MSL
hPa
Rain
since 9 am
mm
Dir
 
Spd
km/h
Gust
km/h
Spd
kts
Gust
kts
20/05:30pm 27.4 23.3 4.5 23 11.8 WSW 15 22 8 12 1015.5 1014.0 0.0
20/05:00pm 27.7 21.5 4.1 22 12.1 WNW 26 32 14 17 1015.2 1013.8 0.0
20/04:30pm 28.1 23.3 4.4 22 12.3 WNW 19 32 10 17 1015.0 1013.6 0.0
20/04:00pm 27.8 22.9 4.2 22 12.2 WNW 19 28 10 15 1014.8 1013.3 0.0
20/03:30pm 27.7 22.7 4.7 23 11.9 W 20 32 11 17 1014.7 1013.2 0.0
20/03:00pm 27.9 22.2 4.9 23 12.0 W 24 39 13 21 1014.6 1013.1 0.0
20/02:30pm 27.4 22.4 4.5 23 11.8 WNW 20 26 11 14 1014.7 1013.2 0.0
20/02:00pm 26.2 19.8 5.2 26 10.9 WNW 28 35 15 19 1015.0 1013.6 0.0
20/01:30pm 26.2 22.0 5.7 27 10.7 W 17 30 9 16 1015.3 1013.9 0.0
20/01:00pm 26.1 20.4 5.1 26 10.9 WNW 24 59 13 32 1015.6 1014.1 0.0
20/12:30pm 25.7 20.7 6.3 29 10.2 W 22 33 12 18 1015.9 1014.4 0.0
20/12:00pm 25.1 19.9 7.3 32 9.5 NW 24 37 13 20 1016.2 1014.7 0.0
20/11:30am 25.0 19.4 7.2 32 9.5 WNW 26 50 14 27 1016.4 1014.9 0.0
20/11:27am 24.6 18.5 6.4 31 9.6 WNW 28 50 15 27 1016.5 1015.0 0.0
20/11:00am 24.0 19.8 7.6 35 8.8 WNW 19 28 10 15 1016.6 1015.1 0.0
20/10:30am 23.2 18.4 7.3 36 8.4 NW 22 32 12 17 1017.0 1015.5 0.0
20/10:00am 23.0 19.3 7.9 38 8.1 NNW 17 28 9 15 1017.2 1015.7 0.0
20/09:30am 22.2 19.9 10.4 47 6.6 NNW 13 22 7 12 1017.5 1016.1 0.0
20/09:00am 21.1 18.0 9.0 46 6.5 NW 15 19 8 10 1017.7 1016.3 3.0
20/08:30am 20.1 16.8 9.4 50 5.8 NW 17 20 9 11 1017.9 1016.5 3.0
20/08:00am 18.5 16.8 12.5 68 3.4 NW 13 17 7 9 1017.8 1016.4 3.0
20/07:30am 17.0 15.7 12.5 75 2.5 WNW 11 15 6 8 1017.5 1016.1 3.0
20/07:00am 15.4 14.1 12.5 83 1.6 W 11 15 6 8 1017.3 1015.9 3.0
20/06:30am 14.0 13.4 12.4 90 0.9 WNW 7 9 4 5 1017.0 1015.5 3.0
20/06:00am 12.5 11.8 11.4 93 0.6 W 6 7 3 4 1016.5 1015.0 3.0
20/05:30am 12.2 11.8 11.1 93 0.6 WNW 4 6 2 3 1016.1 1014.6 3.0
20/05:00am 12.9 12.3 11.8 93 0.6 W 6 9 3 5 1015.8 1014.3 3.0
20/04:30am 13.2 12.5 11.9 92 0.7 N 7 11 4 6 1014.9 1013.5 3.0
20/04:00am 13.2 12.2 12.3 94 0.5 NNE 9 15 5 8 1014.6 1013.1 3.0
20/03:30am 13.2 12.2 12.4 95 0.4 NNE 9 11 5 6 1014.4 1012.9 3.0
20/03:00am 13.3 12.4 12.5 95 0.4 NE 9 11 5 6 1014.2 1012.7 3.0
20/02:30am 13.2 12.6 12.4 95 0.4 NNE 7 9 4 5 1014.4 1012.9 3.0
20/02:00am 13.3 12.9 12.5 95 0.4 SW 6 7 3 4 1014.3 1012.8 3.0
20/01:30am 13.2 13.9 12.3 94 0.5 CALM 0 0 0 0 1014.3 1012.8 2.8
20/01:00am 13.2 13.9 12.1 93 0.6 CALM 0 0 0 0 1014.3 1012.8 2.8
20/12:30am 13.3 14.0 12.2 93 0.6 CALM 0 0 0 0 1014.4 1012.9 2.8
20/12:00am 13.5 14.2 12.2 92 0.7 W 0 0 0 0 1014.2 1012.7 2.8
 
Date/Time
WST
Temp
°C
App
Temp
°C
Dew
Point
Rel
Hum
%
Delta-T
°C
Wind Press
QNH
hPa
Press
MSL
hPa
Rain
since 9 am
mm
Dir
 
Spd
km/h
Gust
km/h
Spd
kts
Gust
kts
19/11:30pm 14.0 14.8 12.7 92 0.7 CALM 0 6 0 3 1014.3 1012.8 2.8
19/11:00pm 14.5 14.3 13.0 91 0.8 WSW 6 9 3 5 1014.8 1013.3 2.8
19/10:30pm 15.0 15.6 13.0 88 1.1 SSW 2 6 1 3 1014.8 1013.3 2.8
19/10:00pm 15.6 14.6 13.4 87 1.3 ENE 11 17 6 9 1014.9 1013.5 2.8
19/09:30pm 15.9 14.9 13.4 85 1.4 ENE 11 17 6 9 1014.9 1013.5 2.8
19/09:00pm 16.3 14.8 13.2 82 1.8 E 13 17 7 9 1014.9 1013.5 2.8
19/08:30pm 16.5 16.0 12.1 75 2.5 SE 6 7 3 4 1015.0 1013.6 2.8
19/08:00pm 16.3 17.2 13.0 81 1.9 CALM 0 0 0 0 1014.8 1013.3 2.8
19/07:30pm 17.0 17.4 12.5 75 2.5 SW 2 7 1 4 1014.3 1012.8 2.8
19/07:00pm 17.8 16.9 11.4 66 3.5 SW 7 9 4 5 1013.7 1012.2 2.8
19/06:30pm 18.8 16.8 11.4 62 4.1 SW 13 19 7 10 1013.3 1011.8 2.8
19/06:00pm 19.9 15.7 11.1 57 4.9 SW 24 41 13 22 1012.6 1011.1 2.8
19/05:38pm 21.3 15.9 10.8 51 5.9 SW 30 48 16 26 1012.0 1010.5 2.8
19/05:37pm 21.5 16.4 10.6 50 6.1 SW 28 39 15 21 1012.0 1010.5 2.8
19/05:30pm 22.9 21.3 13.9 57 5.3 N 15 20 8 11 1011.2 1009.7 2.8
19/05:00pm 23.0 20.1 12.9 53 5.9 N 20 28 11 15 1010.8 1009.3 2.8
19/04:30pm 22.5 18.5 13.0 55 5.5 N 26 37 14 20 1010.6 1009.1 2.8
19/04:00pm 21.9 19.7 14.8 64 4.3 N 20 26 11 14 1010.4 1008.9 2.8
19/03:30pm 22.7 19.1 13.2 55 5.6 N 24 33 13 18 1010.6 1009.1 2.4
19/03:00pm 22.2 18.8 13.8 59 5.0 NNE 24 35 13 19 1010.7 1009.2 2.4
19/02:42pm 22.5 17.9 12.2 52 5.9 N 28 46 15 25 1010.5 1009.0 2.4
19/02:30pm 23.2 19.9 12.8 52 6.1 N 22 35 12 19 1010.1 1008.5 2.4
19/02:03pm 23.5 18.5 13.4 53 6.0 N 32 50 17 27 1010.8 1009.3 2.4
19/02:00pm 23.6 18.3 13.2 52 6.1 N 33 50 18 27 1010.9 1009.4 2.4
19/01:30pm 22.7 18.3 14.0 58 5.2 N 30 39 16 21 1011.1 1009.6 2.4
19/01:00pm 22.2 20.1 15.3 65 4.2 N 20 28 11 15 1011.9 1010.4 2.2
19/12:30pm 20.7 18.7 16.5 77 2.6 NE 22 35 12 19 1012.2 1010.7 2.2
19/12:00pm 20.2 17.5 15.6 75 2.8 NNE 24 35 13 19 1012.8 1011.3 2.2
19/11:30am 20.8 18.8 15.6 72 3.1 NNE 20 28 11 15 1012.9 1011.4 2.2
19/11:00am 19.7 18.4 16.9 84 1.7 NE 19 30 10 16 1013.0 1011.5 2.2
19/10:30am 18.5 17.4 16.3 87 1.3 NNE 17 26 9 14 1013.3 1011.8 1.8
19/10:00am 18.7 17.9 16.1 85 1.6 NNE 15 24 8 13 1013.8 1012.3 1.4
19/09:30am 18.0 16.5 16.2 89 1.1 NE 19 39 10 21 1014.0 1012.5 1.0
19/09:00am 18.6 17.8 16.2 86 1.5 NE 15 22 8 12 1014.1 1012.6 15.4
19/08:30am 18.1 16.6 16.3 89 1.1 E 19 28 10 15 1012.1 1010.6 15.4
19/08:00am 18.2 16.6 16.0 87 1.3 NE 19 30 10 16 1013.3 1011.8 15.0
19/07:30am 17.9 15.9 15.5 86 1.4 NNE 20 28 11 15 1013.9 1012.4 14.6
19/07:00am 18.6 15.5 15.7 83 1.7 NNE 26 32 14 17 1014.0 1012.5 13.2
19/06:30am 18.8 16.7 15.1 79 2.2 NE 20 30 11 16 1012.4 1010.9 13.2
19/06:00am 18.1 16.1 15.4 84 1.6 NNE 20 32 11 17 1012.6 1011.1 13.2
19/05:30am 18.0 16.1 15.1 83 1.7 NE 19 24 10 13 1011.9 1010.4 13.0
19/05:00am 17.4 16.0 15.6 89 1.1 E 17 20 9 11 1011.9 1010.4 13.0
19/04:30am 17.4 16.8 15.6 89 1.1 NE 13 20 7 11 1013.2 1011.7 13.0
19/04:00am 17.3 16.3 15.5 89 1.1 ENE 15 20 8 11 1012.2 1010.7 12.6
19/03:30am 17.3 17.0 15.5 89 1.1 E 11 17 6 9 1011.9 1010.4 12.6
19/03:00am 18.0 15.5 15.1 83 1.7 NE 22 28 12 15 1012.6 1011.1 11.8
19/02:30am 17.7 15.3 15.3 86 1.4 NE 22 32 12 17 1011.4 1009.9 11.8
19/02:14am 17.9 14.7 15.2 84 1.6 NE 26 35 14 19 1012.0 1010.5 11.6
19/02:00am 17.8 14.2 15.2 85 1.5 NNE 28 37 15 20 1012.7 1011.2 11.0
19/01:54am 17.7 14.8 15.1 85 1.5 NE 24 35 13 19 1012.7 1011.2 10.6
19/01:30am 17.6 14.7 15.2 86 1.4 NE 24 35 13 19 1012.4 1010.9 9.2
19/01:00am 17.1 15.6 15.4 90 1.0 NE 17 24 9 13 1013.2 1011.7 8.8
19/12:30am 17.4 15.6 15.6 89 1.1 ENE 19 26 10 14 1014.0 1012.5 8.6
19/12:00am 17.4 14.0 15.7 90 1.0 ENE 28 37 15 20 1014.1 1012.6 8.4
 
Date/Time
WST
Temp
°C
App
Temp
°C
Dew
Point
Rel
Hum
%
Delta-T
°C
Wind Press
QNH
hPa
Press
MSL
hPa
Rain
since 9 am
mm
Dir
 
Spd
km/h
Gust
km/h
Spd
kts
Gust
kts
18/11:30pm 17.6 15.4 15.9 90 1.0 NE 22 32 12 17 1014.8 1013.3 7.8
18/11:00pm 17.5 13.0 15.3 87 1.3 NNE 33 46 18 25 1015.2 1013.8 7.0
18/10:30pm 18.2 15.2 15.8 86 1.4 NNE 26 35 14 19 1015.3 1013.9 5.8
18/10:00pm 18.0 17.8 15.6 86 1.4 N 11 15 6 8 1015.0 1013.6 5.4
18/09:35pm 18.4 14.5 15.6 84 1.7 N 30 48 16 26 1015.1 1013.7 5.4
18/09:30pm 18.4 13.9 15.5 83 1.7 N 33 48 18 26 1015.3 1013.9 5.2
18/09:16pm 19.9 14.4 14.7 72 3.1 N 37 50 20 27 1015.0 1013.6 4.4
18/09:00pm 19.4 18.1 14.9 75 2.7 N 15 20 8 11 1013.7 1012.2 4.2
18/08:30pm 19.6 19.0 14.6 73 3.0 N 11 17 6 9 1013.4 1011.9 4.2
18/08:00pm 19.3 14.8 14.8 75 2.7 N 32 44 17 24 1014.3 1012.8 4.2
18/07:50pm 20.8 16.4 14.0 65 4.0 N 30 48 16 26 1014.8 1013.3 4.2
18/07:47pm 20.5 16.4 13.9 66 3.9 NNW 28 43 15 23 1014.8 1013.3 4.2
18/07:30pm 20.1 19.2 14.9 72 3.1 WSW 13 19 7 10 1013.6 1012.1 4.0
18/07:00pm 20.6 18.4 14.5 68 3.6 N 19 24 10 13 1012.1 1010.6 4.0
18/06:30pm 20.3 16.0 14.4 69 3.5 N 30 39 16 21 1012.9 1011.4 3.8
18/06:00pm 20.5 18.6 15.3 72 3.1 N 19 30 10 16 1012.3 1010.8 3.4
18/05:30pm 19.8 17.8 15.4 76 2.6 N 20 28 11 15 1011.6 1010.1 3.4
18/05:00pm 19.9 15.7 14.7 72 3.1 NNW 30 39 16 21 1012.6 1011.1 3.0
18/04:49pm 20.1 16.3 14.7 71 3.2 NNW 28 43 15 23 1012.8 1011.3 2.8
18/04:30pm 19.5 18.7 15.2 76 2.6 N 13 19 7 10 1012.7 1011.2 2.6
18/04:00pm 18.6 16.4 14.9 79 2.2 WNW 20 28 11 15 1013.1 1011.6 2.4
18/03:55pm 18.2 16.1 15.1 82 1.8 WNW 20 28 11 15 1013.1 1011.6 2.4
18/03:31pm 20.0 14.0 16.4 80 2.2 W 43 61 23 33 1013.6 1012.1 0.8
18/03:30pm 20.2 14.5 16.2 78 2.4 W 41 61 22 33 1013.5 1012.0 0.4
18/03:27pm 21.1 15.7 16.1 73 3.1 W 39 61 21 33 1013.0 1011.5 0.2
18/03:21pm 22.0 16.6 14.9 64 4.3 W 37 43 20 23 1012.0 1010.5 0.2
18/03:00pm 23.6 22.0 14.0 55 5.7 W 15 22 8 12 1010.9 1009.4 0.2
18/02:30pm 27.4 21.3 9.7 33 10.0 NNW 32 41 17 22 1010.8 1009.3 0.2
18/02:00pm 27.8 20.7 9.6 32 10.3 N 37 52 20 28 1010.4 1008.9 0.2
18/01:32pm 28.0 20.3 10.2 33 10.2 N 41 59 22 32 1010.4 1008.9 0.2
18/01:30pm 27.9 19.6 10.1 33 10.1 N 44 59 24 32 1010.5 1009.0 0.2
18/01:00pm 30.1 20.9 9.6 28 11.7 N 48 70 26 38 1010.4 1008.9 0.2
18/12:33pm 28.2 19.2 10.4 33 10.2 N 48 67 26 36 1011.3 1009.8 0.2
18/12:30pm 28.5 19.5 10.2 32 10.5 N 48 65 26 35 1011.3 1009.8 0.2
18/12:15pm 29.6 23.3 11.2 32 10.8 N 35 54 19 29 1011.6 1010.1 0.2
18/12:00pm 29.4 22.8 11.5 33 10.5 N 37 52 20 28 1012.1 1010.6 0.2
18/11:30am 29.7 24.3 12.2 34 10.4 NNW 32 41 17 22 1012.4 1010.9 0.2
18/11:00am 28.0 23.5 11.5 35 9.6 N 26 39 14 21 1013.0 1011.5 0.2
18/10:30am 27.4 23.3 11.4 37 9.3 N 24 39 13 21 1013.3 1011.8 0.2
18/10:00am 26.5 23.6 12.2 41 8.4 N 19 26 10 14 1013.5 1012.0 0.2
18/09:30am 25.8 22.8 11.9 42 8.1 N 19 26 10 14 1013.6 1012.1 0.0
18/09:00am 24.8 22.9 13.0 47 7.0 N 15 20 8 11 1013.7 1012.2 2.4
18/08:30am 23.6 22.4 14.0 55 5.7 N 13 20 7 11 1013.8 1012.3 2.4
18/08:00am 21.9 21.6 15.5 67 3.9 E 11 15 6 8 1013.9 1012.4 2.4
18/07:30am 20.0 19.9 16.0 78 2.4 E 11 15 6 8 1014.3 1012.8 2.4
18/07:00am 18.8 18.9 15.5 81 2.0 ESE 9 13 5 7 1014.8 1013.3 2.4
18/06:30am 17.9 18.5 15.7 87 1.3 SE 7 9 4 5 1015.0 1013.6 2.4
18/06:00am 18.0 18.6 15.3 84 1.6 W 6 9 3 5 1016.1 1014.6 2.4
18/05:30am 18.2 18.7 15.1 82 1.8 W 6 13 3 7 1016.1 1014.6 2.2
18/05:00am 18.4 18.6 14.7 79 2.2 W 7 11 4 6 1014.9 1013.5 2.2
18/04:30am 18.7 16.9 14.4 76 2.5 W 17 22 9 12 1015.1 1013.7 2.2
18/04:00am 19.4 17.4 14.0 71 3.2 NW 17 22 9 12 1014.7 1013.2 2.2
18/03:30am 19.2 14.8 14.0 72 3.0 N 30 39 16 21 1014.2 1012.7 2.2
18/03:00am 17.8 14.2 14.1 79 2.2 NNE 26 35 14 19 1013.3 1011.8 2.2
18/02:30am 17.2 16.8 14.1 82 1.8 N 9 13 5 7 1015.2 1013.8 2.2
18/02:00am 17.6 15.2 13.7 78 2.3 N 19 28 10 15 1015.1 1013.7 1.2
18/01:30am 18.3 15.5 13.2 72 2.9 NNE 20 26 11 14 1014.3 1012.8 0.8
18/01:00am 17.9 14.1 13.6 76 2.5 NE 26 39 14 21 1014.1 1012.6 0.8
18/12:30am 18.5 15.7 13.1 71 3.1 NE 20 30 11 16 1014.5 1013.0 0.6
18/12:00am 18.2 14.3 13.3 73 2.8 NE 26 35 14 19 1014.6 1013.1 0.6
 
Date/Time
WST
Temp
°C
App
Temp
°C
Dew
Point
Rel
Hum
%
Delta-T
°C
Wind Press
QNH
hPa
Press
MSL
hPa
Rain
since 9 am
mm
Dir
 
Spd
km/h
Gust
km/h
Spd
kts
Gust
kts
17/11:30pm 17.9 13.0 14.4 80 2.0 NNE 33 54 18 29 1015.5 1014.0 0.6
17/11:03pm 18.2 12.3 14.7 80 2.1 NNE 39 57 21 31 1015.3 1013.9 0.6
17/11:00pm 18.1 11.5 14.8 81 1.9 NNE 43 57 23 31 1015.5 1014.0 0.6
17/10:30pm 18.5 12.0 15.0 80 2.1 NNE 43 61 23 33 1015.5 1014.0 0.6
17/10:00pm 18.5 12.0 15.7 84 1.7 N 44 69 24 37 1015.9 1014.4 0.4
17/09:30pm 18.8 11.7 14.9 78 2.3 N 46 67 25 36 1017.0 1015.5 0.2
17/09:12pm 19.5 12.3 14.7 74 2.8 N 46 65 25 35 1017.2 1015.7 0.2
17/09:00pm 19.9 12.6 14.5 71 3.2 N 46 59 25 32 1017.8 1016.4 0.2
17/08:30pm 21.9 14.7 13.0 57 5.2 NNW 43 65 23 35 1017.7 1016.3 0.2
17/08:09pm 23.4 17.4 12.1 49 6.5 NNW 35 54 19 29 1017.2 1015.7 0.2
17/08:00pm 23.8 17.0 11.8 47 6.9 NNW 39 54 21 29 1016.9 1015.4 0.2
17/07:46pm 23.8 17.7 11.8 47 6.9 N 35 44 19 24 1016.4 1014.9 0.2
17/07:30pm 23.6 21.9 11.3 46 7.0 NNW 11 22 6 12 1015.6 1014.1 0.2
17/07:00pm 22.9 22.5 12.5 52 6.0 NW 6 9 3 5 1014.4 1012.9 0.2
17/06:30pm 23.0 22.4 12.3 51 6.2 S 7 9 4 5 1013.6 1012.1 0.2
17/06:00pm 23.5 22.7 12.8 51 6.3 NNE 9 13 5 7 1013.0 1011.5 0.2

Other Formats:

Comma delimited format used in spreadsheet applications
http://www.bom.gov.au/fwo/IDW60801/IDW60801.94450.axf

JavaScript Object Notation format (JSON) in row-major order
http://www.bom.gov.au/fwo/IDW60801/IDW60801.94450.json